sensor_id;sensor_type;location;lat;lon;timestamp;temperature;humidity
33955;DHT22;20233;50.804;7.126;2023-11-19T00:00:50;11.40;99.90
33955;DHT22;20233;50.804;7.126;2023-11-19T00:03:16;11.40;99.90
33955;DHT22;20233;50.804;7.126;2023-11-19T00:05:43;11.40;99.90
33955;DHT22;20233;50.804;7.126;2023-11-19T00:08:09;11.40;99.90
33955;DHT22;20233;50.804;7.126;2023-11-19T00:10:35;11.40;99.90
33955;DHT22;20233;50.804;7.126;2023-11-19T00:13:01;11.40;99.90
33955;DHT22;20233;50.804;7.126;2023-11-19T00:15:28;11.40;99.90
33955;DHT22;20233;50.804;7.126;2023-11-19T00:17:53;11.40;99.90
33955;DHT22;20233;50.804;7.126;2023-11-19T00:20:20;11.40;99.90
33955;DHT22;20233;50.804;7.126;2023-11-19T00:22:47;11.40;99.90
33955;DHT22;20233;50.804;7.126;2023-11-19T00:25:17;11.30;99.90
33955;DHT22;20233;50.804;7.126;2023-11-19T00:27:43;11.30;99.90
33955;DHT22;20233;50.804;7.126;2023-11-19T00:30:10;11.40;99.90
33955;DHT22;20233;50.804;7.126;2023-11-19T00:32:36;11.30;99.90
33955;DHT22;20233;50.804;7.126;2023-11-19T00:35:04;11.40;99.90
33955;DHT22;20233;50.804;7.126;2023-11-19T00:37:29;11.40;99.90
33955;DHT22;20233;50.804;7.126;2023-11-19T00:39:55;11.40;99.90
33955;DHT22;20233;50.804;7.126;2023-11-19T00:42:22;11.40;99.90
33955;DHT22;20233;50.804;7.126;2023-11-19T00:44:49;11.40;99.90
33955;DHT22;20233;50.804;7.126;2023-11-19T00:47:15;11.40;99.90
33955;DHT22;20233;50.804;7.126;2023-11-19T00:49:40;11.50;99.90
33955;DHT22;20233;50.804;7.126;2023-11-19T00:52:06;11.50;99.90
33955;DHT22;20233;50.804;7.126;2023-11-19T00:54:32;11.50;99.90
33955;DHT22;20233;50.804;7.126;2023-11-19T00:56:57;11.50;99.90
33955;DHT22;20233;50.804;7.126;2023-11-19T00:59:23;11.50;99.90
33955;DHT22;20233;50.804;7.126;2023-11-19T01:01:49;11.50;99.90
33955;DHT22;20233;50.804;7.126;2023-11-19T01:04:15;11.50;99.90
33955;DHT22;20233;50.804;7.126;2023-11-19T01:06:40;11.50;99.90
33955;DHT22;20233;50.804;7.126;2023-11-19T01:09:08;11.50;99.90
33955;DHT22;20233;50.804;7.126;2023-11-19T01:11:34;11.50;99.90
33955;DHT22;20233;50.804;7.126;2023-11-19T01:14:00;11.50;99.90
33955;DHT22;20233;50.804;7.126;2023-11-19T01:16:26;11.50;99.90
33955;DHT22;20233;50.804;7.126;2023-11-19T01:18:51;11.60;99.90
33955;DHT22;20233;50.804;7.126;2023-11-19T01:21:18;11.60;99.90
33955;DHT22;20233;50.804;7.126;2023-11-19T01:23:43;11.60;99.90
33955;DHT22;20233;50.804;7.126;2023-11-19T01:26:10;11.50;99.90
33955;DHT22;20233;50.804;7.126;2023-11-19T01:28:36;11.60;99.90
33955;DHT22;20233;50.804;7.126;2023-11-19T01:31:01;11.60;99.90
33955;DHT22;20233;50.804;7.126;2023-11-19T01:33:28;11.70;99.90
33955;DHT22;20233;50.804;7.126;2023-11-19T01:35:54;11.70;99.90
33955;DHT22;20233;50.804;7.126;2023-11-19T01:38:19;11.70;99.90
33955;DHT22;20233;50.804;7.126;2023-11-19T01:40:45;11.80;99.90
33955;DHT22;20233;50.804;7.126;2023-11-19T01:43:12;11.80;99.90
33955;DHT22;20233;50.804;7.126;2023-11-19T01:45:39;11.80;99.90
33955;DHT22;20233;50.804;7.126;2023-11-19T01:48:05;11.80;99.90
33955;DHT22;20233;50.804;7.126;2023-11-19T01:50:32;11.80;99.90
33955;DHT22;20233;50.804;7.126;2023-11-19T01:52:58;11.80;99.90
33955;DHT22;20233;50.804;7.126;2023-11-19T01:55:25;11.90;99.90
33955;DHT22;20233;50.804;7.126;2023-11-19T01:57:53;11.90;99.90
33955;DHT22;20233;50.804;7.126;2023-11-19T02:00:19;11.90;99.90
33955;DHT22;20233;50.804;7.126;2023-11-19T02:02:46;11.90;99.90
33955;DHT22;20233;50.804;7.126;2023-11-19T02:05:14;11.90;99.90
33955;DHT22;20233;50.804;7.126;2023-11-19T02:07:40;11.90;99.90
33955;DHT22;20233;50.804;7.126;2023-11-19T02:10:06;11.90;99.90
33955;DHT22;20233;50.804;7.126;2023-11-19T02:12:38;12.00;99.90
33955;DHT22;20233;50.804;7.126;2023-11-19T02:15:09;11.90;99.90
33955;DHT22;20233;50.804;7.126;2023-11-19T02:17:34;11.90;99.90
33955;DHT22;20233;50.804;7.126;2023-11-19T02:20:03;12.00;99.90
33955;DHT22;20233;50.804;7.126;2023-11-19T02:22:31;12.00;99.90
33955;DHT22;20233;50.804;7.126;2023-11-19T02:25:00;12.00;99.90
33955;DHT22;20233;50.804;7.126;2023-11-19T02:27:47;11.90;99.90
33955;DHT22;20233;50.804;7.126;2023-11-19T02:30:14;11.90;99.90
33955;DHT22;20233;50.804;7.126;2023-11-19T02:32:41;11.90;99.90
33955;DHT22;20233;50.804;7.126;2023-11-19T02:35:07;11.90;99.90
33955;DHT22;20233;50.804;7.126;2023-11-19T02:37:37;11.90;99.90
33955;DHT22;20233;50.804;7.126;2023-11-19T02:40:04;11.90;99.90
33955;DHT22;20233;50.804;7.126;2023-11-19T02:42:31;11.90;99.90
33955;DHT22;20233;50.804;7.126;2023-11-19T02:44:56;11.90;99.90
33955;DHT22;20233;50.804;7.126;2023-11-19T02:47:22;11.90;99.90
33955;DHT22;20233;50.804;7.126;2023-11-19T02:49:49;11.80;99.90
33955;DHT22;20233;50.804;7.126;2023-11-19T02:52:15;11.90;99.90
33955;DHT22;20233;50.804;7.126;2023-11-19T02:54:42;11.90;99.90
33955;DHT22;20233;50.804;7.126;2023-11-19T02:57:08;12.00;99.90
33955;DHT22;20233;50.804;7.126;2023-11-19T02:59:39;12.00;99.90
33955;DHT22;20233;50.804;7.126;2023-11-19T03:02:07;12.00;99.90
33955;DHT22;20233;50.804;7.126;2023-11-19T03:04:36;12.00;99.90
33955;DHT22;20233;50.804;7.126;2023-11-19T03:07:02;11.90;99.90
33955;DHT22;20233;50.804;7.126;2023-11-19T03:09:27;11.90;99.90
33955;DHT22;20233;50.804;7.126;2023-11-19T03:11:54;11.90;99.90
33955;DHT22;20233;50.804;7.126;2023-11-19T03:14:20;11.90;99.90
33955;DHT22;20233;50.804;7.126;2023-11-19T03:16:46;11.90;99.90
33955;DHT22;20233;50.804;7.126;2023-11-19T03:19:14;11.90;99.90
33955;DHT22;20233;50.804;7.126;2023-11-19T03:21:40;12.00;99.90
33955;DHT22;20233;50.804;7.126;2023-11-19T03:24:05;12.00;99.90
33955;DHT22;20233;50.804;7.126;2023-11-19T03:26:32;12.00;99.90
33955;DHT22;20233;50.804;7.126;2023-11-19T03:28:59;12.10;99.90
33955;DHT22;20233;50.804;7.126;2023-11-19T03:31:24;12.10;99.90
33955;DHT22;20233;50.804;7.126;2023-11-19T03:33:51;12.10;99.90
33955;DHT22;20233;50.804;7.126;2023-11-19T03:36:16;12.10;99.90
33955;DHT22;20233;50.804;7.126;2023-11-19T03:38:42;12.10;99.90
33955;DHT22;20233;50.804;7.126;2023-11-19T03:41:14;12.00;99.90
33955;DHT22;20233;50.804;7.126;2023-11-19T03:43:41;12.00;99.90
33955;DHT22;20233;50.804;7.126;2023-11-19T03:46:17;12.00;99.90
33955;DHT22;20233;50.804;7.126;2023-11-19T03:48:43;12.00;99.90
33955;DHT22;20233;50.804;7.126;2023-11-19T03:51:08;12.00;99.90
33955;DHT22;20233;50.804;7.126;2023-11-19T03:53:34;11.90;99.90
33955;DHT22;20233;50.804;7.126;2023-11-19T03:56:00;11.90;99.90
33955;DHT22;20233;50.804;7.126;2023-11-19T03:58:26;11.90;99.90
33955;DHT22;20233;50.804;7.126;2023-11-19T04:00:51;11.90;99.90
33955;DHT22;20233;50.804;7.126;2023-11-19T04:03:17;12.00;99.90
33955;DHT22;20233;50.804;7.126;2023-11-19T04:05:45;11.90;99.90
33955;DHT22;20233;50.804;7.126;2023-11-19T04:08:10;12.00;99.90
33955;DHT22;20233;50.804;7.126;2023-11-19T04:10:36;12.00;99.90
33955;DHT22;20233;50.804;7.126;2023-11-19T04:13:01;12.00;99.90
33955;DHT22;20233;50.804;7.126;2023-11-19T04:15:27;11.90;99.90
33955;DHT22;20233;50.804;7.126;2023-11-19T04:17:52;12.00;99.90
33955;DHT22;20233;50.804;7.126;2023-11-19T04:20:18;12.00;99.90
33955;DHT22;20233;50.804;7.126;2023-11-19T04:22:43;12.10;99.90
33955;DHT22;20233;50.804;7.126;2023-11-19T04:25:09;12.10;99.90
33955;DHT22;20233;50.804;7.126;2023-11-19T04:27:34;12.10;99.90
33955;DHT22;20233;50.804;7.126;2023-11-19T04:30:00;12.20;99.90
33955;DHT22;20233;50.804;7.126;2023-11-19T04:32:27;12.30;99.90
33955;DHT22;20233;50.804;7.126;2023-11-19T04:34:52;12.30;99.90
33955;DHT22;20233;50.804;7.126;2023-11-19T04:37:18;12.40;99.90
33955;DHT22;20233;50.804;7.126;2023-11-19T04:39:46;12.50;99.90
33955;DHT22;20233;50.804;7.126;2023-11-19T04:42:12;12.50;99.90
33955;DHT22;20233;50.804;7.126;2023-11-19T04:44:38;12.50;99.90
33955;DHT22;20233;50.804;7.126;2023-11-19T04:47:03;12.50;99.90
33955;DHT22;20233;50.804;7.126;2023-11-19T04:49:29;12.50;99.90
33955;DHT22;20233;50.804;7.126;2023-11-19T04:51:55;12.60;99.90
33955;DHT22;20233;50.804;7.126;2023-11-19T04:54:21;12.50;99.90
33955;DHT22;20233;50.804;7.126;2023-11-19T04:56:47;12.60;99.90
33955;DHT22;20233;50.804;7.126;2023-11-19T04:59:13;12.60;99.90
33955;DHT22;20233;50.804;7.126;2023-11-19T05:01:38;12.60;99.90
33955;DHT22;20233;50.804;7.126;2023-11-19T05:04:04;12.60;99.90
33955;DHT22;20233;50.804;7.126;2023-11-19T05:06:30;12.60;99.90
33955;DHT22;20233;50.804;7.126;2023-11-19T05:08:58;12.60;99.90
33955;DHT22;20233;50.804;7.126;2023-11-19T05:11:23;12.50;99.90
33955;DHT22;20233;50.804;7.126;2023-11-19T05:13:49;12.60;99.90
33955;DHT22;20233;50.804;7.126;2023-11-19T05:16:15;12.50;99.90
33955;DHT22;20233;50.804;7.126;2023-11-19T05:18:42;12.50;99.90
33955;DHT22;20233;50.804;7.126;2023-11-19T05:21:08;12.40;99.90
33955;DHT22;20233;50.804;7.126;2023-11-19T05:23:34;12.40;99.90
33955;DHT22;20233;50.804;7.126;2023-11-19T05:26:01;12.40;99.90
33955;DHT22;20233;50.804;7.126;2023-11-19T05:28:26;12.30;99.90
33955;DHT22;20233;50.804;7.126;2023-11-19T05:30:52;12.40;99.90
33955;DHT22;20233;50.804;7.126;2023-11-19T05:33:17;12.40;99.90
33955;DHT22;20233;50.804;7.126;2023-11-19T05:35:43;12.30;99.90
33955;DHT22;20233;50.804;7.126;2023-11-19T05:38:08;12.30;99.90
33955;DHT22;20233;50.804;7.126;2023-11-19T05:40:35;12.20;99.90
33955;DHT22;20233;50.804;7.126;2023-11-19T05:43:01;12.30;99.90
33955;DHT22;20233;50.804;7.126;2023-11-19T05:45:26;12.20;99.90
33955;DHT22;20233;50.804;7.126;2023-11-19T05:47:52;12.30;99.90
33955;DHT22;20233;50.804;7.126;2023-11-19T05:50:18;12.30;99.90
33955;DHT22;20233;50.804;7.126;2023-11-19T05:52:44;12.30;99.90
33955;DHT22;20233;50.804;7.126;2023-11-19T05:55:09;12.20;99.90
33955;DHT22;20233;50.804;7.126;2023-11-19T05:57:39;12.30;99.90
33955;DHT22;20233;50.804;7.126;2023-11-19T06:00:06;12.20;99.90
33955;DHT22;20233;50.804;7.126;2023-11-19T06:02:35;12.20;99.90
33955;DHT22;20233;50.804;7.126;2023-11-19T06:05:02;12.20;99.90
33955;DHT22;20233;50.804;7.126;2023-11-19T06:07:30;12.20;99.90
33955;DHT22;20233;50.804;7.126;2023-11-19T06:09:56;12.20;99.90
33955;DHT22;20233;50.804;7.126;2023-11-19T06:12:22;12.10;99.90
33955;DHT22;20233;50.804;7.126;2023-11-19T06:14:47;12.20;99.90
33955;DHT22;20233;50.804;7.126;2023-11-19T06:17:13;12.20;99.90
33955;DHT22;20233;50.804;7.126;2023-11-19T06:19:39;12.10;99.90
33955;DHT22;20233;50.804;7.126;2023-11-19T06:22:04;12.20;99.90
33955;DHT22;20233;50.804;7.126;2023-11-19T06:24:30;12.30;99.90
33955;DHT22;20233;50.804;7.126;2023-11-19T06:26:55;12.30;99.90
33955;DHT22;20233;50.804;7.126;2023-11-19T06:29:21;12.40;99.90
33955;DHT22;20233;50.804;7.126;2023-11-19T06:31:46;12.40;99.90
33955;DHT22;20233;50.804;7.126;2023-11-19T06:34:14;12.30;99.90
33955;DHT22;20233;50.804;7.126;2023-11-19T06:36:40;12.30;99.90
33955;DHT22;20233;50.804;7.126;2023-11-19T06:39:06;12.40;99.90
33955;DHT22;20233;50.804;7.126;2023-11-19T06:41:31;12.30;99.90
33955;DHT22;20233;50.804;7.126;2023-11-19T06:43:57;12.50;99.90
33955;DHT22;20233;50.804;7.126;2023-11-19T06:46:22;12.50;99.90
33955;DHT22;20233;50.804;7.126;2023-11-19T06:48:48;12.50;99.90
33955;DHT22;20233;50.804;7.126;2023-11-19T06:51:14;12.40;99.90
33955;DHT22;20233;50.804;7.126;2023-11-19T06:53:40;12.40;99.90
33955;DHT22;20233;50.804;7.126;2023-11-19T06:56:17;12.40;99.90
33955;DHT22;20233;50.804;7.126;2023-11-19T06:58:42;12.50;99.90
33955;DHT22;20233;50.804;7.126;2023-11-19T07:01:08;12.50;99.90
33955;DHT22;20233;50.804;7.126;2023-11-19T07:03:35;12.50;99.90
33955;DHT22;20233;50.804;7.126;2023-11-19T07:06:00;12.60;99.90
33955;DHT22;20233;50.804;7.126;2023-11-19T07:08:26;12.50;99.90
33955;DHT22;20233;50.804;7.126;2023-11-19T07:10:52;12.40;99.90
33955;DHT22;20233;50.804;7.126;2023-11-19T07:13:17;12.40;99.90
33955;DHT22;20233;50.804;7.126;2023-11-19T07:15:44;12.40;99.90
33955;DHT22;20233;50.804;7.126;2023-11-19T07:18:10;12.40;99.90
33955;DHT22;20233;50.804;7.126;2023-11-19T07:20:37;12.40;99.90
33955;DHT22;20233;50.804;7.126;2023-11-19T07:23:04;12.40;99.90
33955;DHT22;20233;50.804;7.126;2023-11-19T07:25:30;12.30;99.90
33955;DHT22;20233;50.804;7.126;2023-11-19T07:27:57;12.20;99.90
33955;DHT22;20233;50.804;7.126;2023-11-19T07:30:26;12.20;99.90
33955;DHT22;20233;50.804;7.126;2023-11-19T07:32:53;12.20;99.90
33955;DHT22;20233;50.804;7.126;2023-11-19T07:35:20;12.20;99.90
33955;DHT22;20233;50.804;7.126;2023-11-19T07:37:46;12.10;99.90
33955;DHT22;20233;50.804;7.126;2023-11-19T07:40:13;12.10;99.90
33955;DHT22;20233;50.804;7.126;2023-11-19T07:42:40;12.10;99.90
33955;DHT22;20233;50.804;7.126;2023-11-19T07:45:08;12.10;99.90
33955;DHT22;20233;50.804;7.126;2023-11-19T07:47:35;12.10;99.90
33955;DHT22;20233;50.804;7.126;2023-11-19T07:50:01;12.10;99.90
33955;DHT22;20233;50.804;7.126;2023-11-19T07:52:27;12.10;99.90
33955;DHT22;20233;50.804;7.126;2023-11-19T07:54:56;12.20;99.90
33955;DHT22;20233;50.804;7.126;2023-11-19T07:57:25;12.20;99.90
33955;DHT22;20233;50.804;7.126;2023-11-19T07:59:53;12.20;99.90
33955;DHT22;20233;50.804;7.126;2023-11-19T08:02:19;12.20;99.90
33955;DHT22;20233;50.804;7.126;2023-11-19T08:04:46;12.20;99.90
33955;DHT22;20233;50.804;7.126;2023-11-19T08:07:16;12.20;99.90
33955;DHT22;20233;50.804;7.126;2023-11-19T08:09:43;12.20;99.90
33955;DHT22;20233;50.804;7.126;2023-11-19T08:12:10;12.20;99.90
33955;DHT22;20233;50.804;7.126;2023-11-19T08:14:36;12.20;99.90
33955;DHT22;20233;50.804;7.126;2023-11-19T08:17:03;12.20;99.90
33955;DHT22;20233;50.804;7.126;2023-11-19T08:19:30;12.30;99.90
33955;DHT22;20233;50.804;7.126;2023-11-19T08:21:57;12.30;99.90
33955;DHT22;20233;50.804;7.126;2023-11-19T08:24:24;12.30;99.90
33955;DHT22;20233;50.804;7.126;2023-11-19T08:26:51;12.30;99.90
33955;DHT22;20233;50.804;7.126;2023-11-19T08:29:18;12.40;99.90
33955;DHT22;20233;50.804;7.126;2023-11-19T08:31:44;12.40;99.90
33955;DHT22;20233;50.804;7.126;2023-11-19T08:34:12;12.40;99.90
33955;DHT22;20233;50.804;7.126;2023-11-19T08:36:41;12.40;99.90
33955;DHT22;20233;50.804;7.126;2023-11-19T08:39:08;12.30;99.90
33955;DHT22;20233;50.804;7.126;2023-11-19T08:41:34;12.30;99.90
33955;DHT22;20233;50.804;7.126;2023-11-19T08:44:01;12.30;99.90
33955;DHT22;20233;50.804;7.126;2023-11-19T08:46:27;12.40;99.90
33955;DHT22;20233;50.804;7.126;2023-11-19T08:48:54;12.40;99.90
33955;DHT22;20233;50.804;7.126;2023-11-19T08:51:23;12.40;99.90
33955;DHT22;20233;50.804;7.126;2023-11-19T08:53:50;12.40;99.90
33955;DHT22;20233;50.804;7.126;2023-11-19T08:56:17;12.40;99.90
33955;DHT22;20233;50.804;7.126;2023-11-19T08:58:43;12.40;99.90
33955;DHT22;20233;50.804;7.126;2023-11-19T09:01:10;12.40;99.90
33955;DHT22;20233;50.804;7.126;2023-11-19T09:03:36;12.40;99.90
33955;DHT22;20233;50.804;7.126;2023-11-19T09:06:02;12.40;99.90
33955;DHT22;20233;50.804;7.126;2023-11-19T09:08:30;12.40;99.90
33955;DHT22;20233;50.804;7.126;2023-11-19T09:10:57;12.40;99.90
33955;DHT22;20233;50.804;7.126;2023-11-19T09:13:24;12.50;99.90
33955;DHT22;20233;50.804;7.126;2023-11-19T09:15:51;12.50;99.90
33955;DHT22;20233;50.804;7.126;2023-11-19T09:18:17;12.50;99.90
33955;DHT22;20233;50.804;7.126;2023-11-19T09:20:44;12.50;99.90
33955;DHT22;20233;50.804;7.126;2023-11-19T09:23:11;12.60;99.90
33955;DHT22;20233;50.804;7.126;2023-11-19T09:25:38;12.60;99.90
33955;DHT22;20233;50.804;7.126;2023-11-19T09:28:05;12.70;99.90
33955;DHT22;20233;50.804;7.126;2023-11-19T09:30:31;12.60;99.90
33955;DHT22;20233;50.804;7.126;2023-11-19T09:33:00;12.70;99.90
33955;DHT22;20233;50.804;7.126;2023-11-19T09:35:26;12.70;99.90
33955;DHT22;20233;50.804;7.126;2023-11-19T09:37:53;12.80;99.90
33955;DHT22;20233;50.804;7.126;2023-11-19T09:40:19;12.90;99.90
33955;DHT22;20233;50.804;7.126;2023-11-19T09:42:47;12.80;99.90
33955;DHT22;20233;50.804;7.126;2023-11-19T09:45:17;12.90;99.90
33955;DHT22;20233;50.804;7.126;2023-11-19T09:47:47;12.80;99.90
33955;DHT22;20233;50.804;7.126;2023-11-19T09:50:17;12.90;99.90
33955;DHT22;20233;50.804;7.126;2023-11-19T09:52:45;12.90;99.90
33955;DHT22;20233;50.804;7.126;2023-11-19T09:55:11;13.00;99.90
33955;DHT22;20233;50.804;7.126;2023-11-19T09:57:41;13.00;99.90
33955;DHT22;20233;50.804;7.126;2023-11-19T10:00:10;13.00;99.90
33955;DHT22;20233;50.804;7.126;2023-11-19T10:02:39;13.00;99.90
33955;DHT22;20233;50.804;7.126;2023-11-19T10:05:09;13.10;99.90
33955;DHT22;20233;50.804;7.126;2023-11-19T10:07:36;13.10;99.90
33955;DHT22;20233;50.804;7.126;2023-11-19T10:10:04;13.20;99.90
33955;DHT22;20233;50.804;7.126;2023-11-19T10:12:32;13.20;99.90
33955;DHT22;20233;50.804;7.126;2023-11-19T10:15:00;13.20;99.90
33955;DHT22;20233;50.804;7.126;2023-11-19T10:17:39;13.30;99.90
33955;DHT22;20233;50.804;7.126;2023-11-19T10:20:06;13.30;99.90
33955;DHT22;20233;50.804;7.126;2023-11-19T10:22:36;13.30;99.90
33955;DHT22;20233;50.804;7.126;2023-11-19T10:25:02;13.20;99.90
33955;DHT22;20233;50.804;7.126;2023-11-19T10:27:29;13.30;99.90
33955;DHT22;20233;50.804;7.126;2023-11-19T10:29:59;13.30;99.90
33955;DHT22;20233;50.804;7.126;2023-11-19T10:32:27;13.30;99.90
33955;DHT22;20233;50.804;7.126;2023-11-19T10:35:05;13.30;99.90
33955;DHT22;20233;50.804;7.126;2023-11-19T10:37:34;13.40;99.90
33955;DHT22;20233;50.804;7.126;2023-11-19T10:40:03;13.40;99.90
33955;DHT22;20233;50.804;7.126;2023-11-19T10:42:36;13.50;99.90
33955;DHT22;20233;50.804;7.126;2023-11-19T10:45:02;13.50;99.90
33955;DHT22;20233;50.804;7.126;2023-11-19T10:47:29;13.50;99.90
33955;DHT22;20233;50.804;7.126;2023-11-19T10:49:59;13.50;99.90
33955;DHT22;20233;50.804;7.126;2023-11-19T10:52:25;13.50;99.90
33955;DHT22;20233;50.804;7.126;2023-11-19T10:54:58;13.50;99.90
33955;DHT22;20233;50.804;7.126;2023-11-19T10:57:31;13.60;99.90
33955;DHT22;20233;50.804;7.126;2023-11-19T11:00:02;13.50;99.90
33955;DHT22;20233;50.804;7.126;2023-11-19T11:02:30;13.60;99.90
33955;DHT22;20233;50.804;7.126;2023-11-19T11:04:59;13.70;99.90
33955;DHT22;20233;50.804;7.126;2023-11-19T11:07:27;13.70;99.90
33955;DHT22;20233;50.804;7.126;2023-11-19T11:09:55;13.70;99.90
33955;DHT22;20233;50.804;7.126;2023-11-19T11:12:22;13.70;99.90
33955;DHT22;20233;50.804;7.126;2023-11-19T11:14:51;13.70;99.90
33955;DHT22;20233;50.804;7.126;2023-11-19T11:17:21;13.80;99.90
33955;DHT22;20233;50.804;7.126;2023-11-19T11:19:50;13.80;99.90
33955;DHT22;20233;50.804;7.126;2023-11-19T11:22:23;13.80;99.90
33955;DHT22;20233;50.804;7.126;2023-11-19T11:25:10;13.80;99.90
33955;DHT22;20233;50.804;7.126;2023-11-19T11:27:51;13.80;99.90
33955;DHT22;20233;50.804;7.126;2023-11-19T11:33:20;13.80;99.90
33955;DHT22;20233;50.804;7.126;2023-11-19T11:38:24;13.70;99.90
33955;DHT22;20233;50.804;7.126;2023-11-19T11:43:49;13.80;99.90
33955;DHT22;20233;50.804;7.126;2023-11-19T11:49:08;13.60;99.90
33955;DHT22;20233;50.804;7.126;2023-11-19T11:51:57;13.30;99.90
33955;DHT22;20233;50.804;7.126;2023-11-19T11:57:11;13.10;99.90
33955;DHT22;20233;50.804;7.126;2023-11-19T12:02:13;13.20;99.90
33955;DHT22;20233;50.804;7.126;2023-11-19T12:04:42;13.30;99.90
33955;DHT22;20233;50.804;7.126;2023-11-19T12:07:12;13.40;99.90
33955;DHT22;20233;50.804;7.126;2023-11-19T12:09:46;13.40;99.90
33955;DHT22;20233;50.804;7.126;2023-11-19T12:12:27;13.30;99.90
33955;DHT22;20233;50.804;7.126;2023-11-19T12:15:01;13.40;99.90
33955;DHT22;20233;50.804;7.126;2023-11-19T12:17:50;13.50;99.90
33955;DHT22;20233;50.804;7.126;2023-11-19T12:20:18;13.50;99.90
33955;DHT22;20233;50.804;7.126;2023-11-19T12:22:46;13.50;99.90
33955;DHT22;20233;50.804;7.126;2023-11-19T12:25:16;13.60;99.90
33955;DHT22;20233;50.804;7.126;2023-11-19T12:27:49;13.60;99.90
33955;DHT22;20233;50.804;7.126;2023-11-19T12:30:25;13.60;99.90
33955;DHT22;20233;50.804;7.126;2023-11-19T12:32:53;13.60;99.90
33955;DHT22;20233;50.804;7.126;2023-11-19T12:35:21;13.70;99.90
33955;DHT22;20233;50.804;7.126;2023-11-19T12:37:50;13.60;99.90
33955;DHT22;20233;50.804;7.126;2023-11-19T12:40:20;13.60;99.90
33955;DHT22;20233;50.804;7.126;2023-11-19T12:42:48;13.60;99.90
33955;DHT22;20233;50.804;7.126;2023-11-19T12:45:16;13.70;99.90
33955;DHT22;20233;50.804;7.126;2023-11-19T12:47:45;13.70;99.90
33955;DHT22;20233;50.804;7.126;2023-11-19T12:50:16;13.70;99.90
33955;DHT22;20233;50.804;7.126;2023-11-19T12:52:58;13.80;99.90
33955;DHT22;20233;50.804;7.126;2023-11-19T12:55:29;13.80;99.90
33955;DHT22;20233;50.804;7.126;2023-11-19T12:57:56;13.90;99.90
33955;DHT22;20233;50.804;7.126;2023-11-19T13:00:26;13.90;99.90
33955;DHT22;20233;50.804;7.126;2023-11-19T13:02:56;13.90;99.90
33955;DHT22;20233;50.804;7.126;2023-11-19T13:05:31;13.90;99.90
33955;DHT22;20233;50.804;7.126;2023-11-19T13:10:28;13.90;99.90
33955;DHT22;20233;50.804;7.126;2023-11-19T13:13:05;13.90;99.90
33955;DHT22;20233;50.804;7.126;2023-11-19T13:15:36;13.90;99.90
33955;DHT22;20233;50.804;7.126;2023-11-19T13:18:02;13.90;99.90
33955;DHT22;20233;50.804;7.126;2023-11-19T13:20:30;14.00;99.90
33955;DHT22;20233;50.804;7.126;2023-11-19T13:23:02;13.90;99.90
33955;DHT22;20233;50.804;7.126;2023-11-19T13:25:30;14.00;99.90
33955;DHT22;20233;50.804;7.126;2023-11-19T13:27:58;14.00;99.90
33955;DHT22;20233;50.804;7.126;2023-11-19T13:30:26;14.00;99.90
33955;DHT22;20233;50.804;7.126;2023-11-19T13:32:55;14.00;99.90
33955;DHT22;20233;50.804;7.126;2023-11-19T13:35:23;14.00;99.90
33955;DHT22;20233;50.804;7.126;2023-11-19T13:37:54;14.00;99.90
33955;DHT22;20233;50.804;7.126;2023-11-19T13:40:21;14.00;99.90
33955;DHT22;20233;50.804;7.126;2023-11-19T13:42:50;14.00;99.90
33955;DHT22;20233;50.804;7.126;2023-11-19T13:45:17;13.90;99.90
33955;DHT22;20233;50.804;7.126;2023-11-19T13:47:47;13.80;99.90
33955;DHT22;20233;50.804;7.126;2023-11-19T13:50:15;13.80;99.90
33955;DHT22;20233;50.804;7.126;2023-11-19T13:52:44;13.80;99.90
33955;DHT22;20233;50.804;7.126;2023-11-19T13:55:14;13.80;99.90
33955;DHT22;20233;50.804;7.126;2023-11-19T13:57:42;13.80;99.90
33955;DHT22;20233;50.804;7.126;2023-11-19T14:00:13;13.80;99.90
33955;DHT22;20233;50.804;7.126;2023-11-19T14:02:50;13.70;99.90
33955;DHT22;20233;50.804;7.126;2023-11-19T14:05:18;13.80;99.90
33955;DHT22;20233;50.804;7.126;2023-11-19T14:07:46;13.80;99.90
33955;DHT22;20233;50.804;7.126;2023-11-19T14:10:17;13.70;99.90
33955;DHT22;20233;50.804;7.126;2023-11-19T14:12:49;13.70;99.90
33955;DHT22;20233;50.804;7.126;2023-11-19T14:15:18;13.80;99.90
33955;DHT22;20233;50.804;7.126;2023-11-19T14:17:46;13.90;99.90
33955;DHT22;20233;50.804;7.126;2023-11-19T14:20:13;13.90;99.90
33955;DHT22;20233;50.804;7.126;2023-11-19T14:22:42;13.90;99.90
33955;DHT22;20233;50.804;7.126;2023-11-19T14:25:10;14.00;99.90
33955;DHT22;20233;50.804;7.126;2023-11-19T14:27:38;14.00;99.90
33955;DHT22;20233;50.804;7.126;2023-11-19T14:30:10;14.00;99.90
33955;DHT22;20233;50.804;7.126;2023-11-19T14:32:41;14.10;99.90
33955;DHT22;20233;50.804;7.126;2023-11-19T14:35:10;14.00;99.90
33955;DHT22;20233;50.804;7.126;2023-11-19T14:37:37;14.10;99.90
33955;DHT22;20233;50.804;7.126;2023-11-19T14:40:04;14.00;99.90
33955;DHT22;20233;50.804;7.126;2023-11-19T14:42:32;14.00;99.90
33955;DHT22;20233;50.804;7.126;2023-11-19T14:45:07;14.00;99.90
33955;DHT22;20233;50.804;7.126;2023-11-19T14:47:33;14.00;99.90
33955;DHT22;20233;50.804;7.126;2023-11-19T14:50:00;14.00;99.90
33955;DHT22;20233;50.804;7.126;2023-11-19T14:52:25;14.00;99.90
33955;DHT22;20233;50.804;7.126;2023-11-19T14:54:52;13.90;99.90
33955;DHT22;20233;50.804;7.126;2023-11-19T14:57:20;13.80;99.90
33955;DHT22;20233;50.804;7.126;2023-11-19T14:59:47;13.80;99.90
33955;DHT22;20233;50.804;7.126;2023-11-19T15:02:13;13.70;99.90
33955;DHT22;20233;50.804;7.126;2023-11-19T15:04:40;13.70;99.90
33955;DHT22;20233;50.804;7.126;2023-11-19T15:07:10;13.70;99.90
33955;DHT22;20233;50.804;7.126;2023-11-19T15:09:37;13.70;99.90
33955;DHT22;20233;50.804;7.126;2023-11-19T15:12:04;13.70;99.90
33955;DHT22;20233;50.804;7.126;2023-11-19T15:14:31;13.60;99.90
33955;DHT22;20233;50.804;7.126;2023-11-19T15:17:01;13.60;99.90
33955;DHT22;20233;50.804;7.126;2023-11-19T15:19:29;13.60;99.90
33955;DHT22;20233;50.804;7.126;2023-11-19T15:22:00;13.60;99.90
33955;DHT22;20233;50.804;7.126;2023-11-19T15:24:30;13.60;99.90
33955;DHT22;20233;50.804;7.126;2023-11-19T15:27:07;13.50;99.90
33955;DHT22;20233;50.804;7.126;2023-11-19T15:29:37;13.50;99.90
33955;DHT22;20233;50.804;7.126;2023-11-19T15:32:06;13.40;99.90
33955;DHT22;20233;50.804;7.126;2023-11-19T15:34:36;13.40;99.90
33955;DHT22;20233;50.804;7.126;2023-11-19T15:37:03;13.40;99.90
33955;DHT22;20233;50.804;7.126;2023-11-19T15:39:30;13.40;99.90
33955;DHT22;20233;50.804;7.126;2023-11-19T15:42:05;13.30;99.90
33955;DHT22;20233;50.804;7.126;2023-11-19T15:44:31;13.40;99.90
33955;DHT22;20233;50.804;7.126;2023-11-19T15:47:04;13.40;99.90
33955;DHT22;20233;50.804;7.126;2023-11-19T15:49:31;13.40;99.90
33955;DHT22;20233;50.804;7.126;2023-11-19T15:52:01;13.40;99.90